sensor_id;sensor_type;location;lat;lon;timestamp;P1;durP1;ratioP1;P2;durP2;ratioP2
57778;SDS011;43608;49.486;9.640;2023-04-19T00:00:04;8.75;;;6.80;;
57778;SDS011;43608;49.486;9.640;2023-04-19T00:00:38;8.27;;;6.88;;
57778;SDS011;43608;49.486;9.640;2023-04-19T00:01:09;8.30;;;6.45;;
57778;SDS011;43608;49.486;9.640;2023-04-19T00:01:40;7.75;;;6.32;;
57778;SDS011;43608;49.486;9.640;2023-04-19T00:02:10;9.70;;;7.13;;
57778;SDS011;43608;49.486;9.640;2023-04-19T00:02:42;8.52;;;6.65;;
57778;SDS011;43608;49.486;9.640;2023-04-19T00:03:12;8.43;;;6.88;;
57778;SDS011;43608;49.486;9.640;2023-04-19T00:03:43;9.55;;;7.38;;
57778;SDS011;43608;49.486;9.640;2023-04-19T00:04:14;9.32;;;7.10;;
57778;SDS011;43608;49.486;9.640;2023-04-19T00:04:44;10.20;;;7.43;;
57778;SDS011;43608;49.486;9.640;2023-04-19T00:05:16;9.93;;;7.13;;
57778;SDS011;43608;49.486;9.640;2023-04-19T00:05:47;9.77;;;7.45;;
57778;SDS011;43608;49.486;9.640;2023-04-19T00:06:17;9.57;;;7.60;;
57778;SDS011;43608;49.486;9.640;2023-04-19T00:06:50;9.52;;;7.18;;
57778;SDS011;43608;49.486;9.640;2023-04-19T00:07:20;8.48;;;6.65;;
57778;SDS011;43608;49.486;9.640;2023-04-19T00:07:51;9.40;;;7.20;;
57778;SDS011;43608;49.486;9.640;2023-04-19T00:08:21;10.10;;;7.50;;
57778;SDS011;43608;49.486;9.640;2023-04-19T00:08:52;8.98;;;6.80;;
57778;SDS011;43608;49.486;9.640;2023-04-19T00:09:22;8.30;;;6.63;;
57778;SDS011;43608;49.486;9.640;2023-04-19T00:09:53;7.82;;;6.35;;
57778;SDS011;43608;49.486;9.640;2023-04-19T00:10:23;8.13;;;6.35;;
57778;SDS011;43608;49.486;9.640;2023-04-19T00:10:53;9.05;;;6.70;;
57778;SDS011;43608;49.486;9.640;2023-04-19T00:11:24;8.63;;;6.78;;
57778;SDS011;43608;49.486;9.640;2023-04-19T00:11:54;8.10;;;6.53;;
57778;SDS011;43608;49.486;9.640;2023-04-19T00:12:24;8.40;;;6.78;;
57778;SDS011;43608;49.486;9.640;2023-04-19T00:12:55;9.27;;;6.82;;
57778;SDS011;43608;49.486;9.640;2023-04-19T00:13:25;7.93;;;6.43;;
57778;SDS011;43608;49.486;9.640;2023-04-19T00:13:55;9.65;;;6.45;;
57778;SDS011;43608;49.486;9.640;2023-04-19T00:14:26;7.88;;;6.43;;
57778;SDS011;43608;49.486;9.640;2023-04-19T00:14:57;8.43;;;6.43;;
57778;SDS011;43608;49.486;9.640;2023-04-19T00:15:27;7.18;;;6.03;;
57778;SDS011;43608;49.486;9.640;2023-04-19T00:15:58;7.90;;;6.18;;
57778;SDS011;43608;49.486;9.640;2023-04-19T00:16:28;7.35;;;6.00;;
57778;SDS011;43608;49.486;9.640;2023-04-19T00:16:58;7.50;;;5.72;;
57778;SDS011;43608;49.486;9.640;2023-04-19T00:17:29;8.07;;;6.15;;
57778;SDS011;43608;49.486;9.640;2023-04-19T00:17:59;7.10;;;5.85;;
57778;SDS011;43608;49.486;9.640;2023-04-19T00:18:29;7.20;;;5.80;;
57778;SDS011;43608;49.486;9.640;2023-04-19T00:19:00;8.15;;;6.45;;
57778;SDS011;43608;49.486;9.640;2023-04-19T00:19:30;9.00;;;6.72;;
57778;SDS011;43608;49.486;9.640;2023-04-19T00:20:01;7.60;;;5.93;;
57778;SDS011;43608;49.486;9.640;2023-04-19T00:20:31;8.40;;;6.50;;
57778;SDS011;43608;49.486;9.640;2023-04-19T00:21:02;9.45;;;6.25;;
57778;SDS011;43608;49.486;9.640;2023-04-19T00:21:33;7.30;;;5.75;;
57778;SDS011;43608;49.486;9.640;2023-04-19T00:22:03;8.43;;;5.97;;
57778;SDS011;43608;49.486;9.640;2023-04-19T00:22:33;7.57;;;6.03;;
57778;SDS011;43608;49.486;9.640;2023-04-19T00:23:04;8.13;;;6.35;;
57778;SDS011;43608;49.486;9.640;2023-04-19T00:23:34;7.80;;;6.03;;
57778;SDS011;43608;49.486;9.640;2023-04-19T00:24:05;7.95;;;6.07;;
57778;SDS011;43608;49.486;9.640;2023-04-19T00:24:35;7.60;;;6.00;;
57778;SDS011;43608;49.486;9.640;2023-04-19T00:25:05;8.32;;;6.22;;
57778;SDS011;43608;49.486;9.640;2023-04-19T00:25:36;7.32;;;5.80;;
57778;SDS011;43608;49.486;9.640;2023-04-19T00:26:07;7.47;;;5.47;;
57778;SDS011;43608;49.486;9.640;2023-04-19T00:26:37;7.15;;;5.57;;
57778;SDS011;43608;49.486;9.640;2023-04-19T00:27:07;7.18;;;5.65;;
57778;SDS011;43608;49.486;9.640;2023-04-19T00:27:38;7.63;;;5.97;;
57778;SDS011;43608;49.486;9.640;2023-04-19T00:28:08;7.32;;;6.13;;
57778;SDS011;43608;49.486;9.640;2023-04-19T00:28:39;9.15;;;6.50;;
57778;SDS011;43608;49.486;9.640;2023-04-19T00:29:09;8.43;;;6.20;;
57778;SDS011;43608;49.486;9.640;2023-04-19T00:29:40;7.68;;;6.00;;
57778;SDS011;43608;49.486;9.640;2023-04-19T00:30:10;7.57;;;6.25;;
57778;SDS011;43608;49.486;9.640;2023-04-19T00:30:41;8.38;;;6.53;;
57778;SDS011;43608;49.486;9.640;2023-04-19T00:31:11;7.78;;;6.45;;
57778;SDS011;43608;49.486;9.640;2023-04-19T00:31:41;8.18;;;6.45;;
57778;SDS011;43608;49.486;9.640;2023-04-19T00:32:12;8.07;;;6.18;;
57778;SDS011;43608;49.486;9.640;2023-04-19T00:32:42;8.52;;;6.20;;
57778;SDS011;43608;49.486;9.640;2023-04-19T00:33:13;7.65;;;5.95;;
57778;SDS011;43608;49.486;9.640;2023-04-19T00:33:43;7.40;;;5.80;;
57778;SDS011;43608;49.486;9.640;2023-04-19T00:34:14;8.68;;;6.22;;
57778;SDS011;43608;49.486;9.640;2023-04-19T00:34:44;7.55;;;5.70;;
57778;SDS011;43608;49.486;9.640;2023-04-19T00:35:14;8.23;;;5.57;;
57778;SDS011;43608;49.486;9.640;2023-04-19T00:35:45;8.82;;;5.95;;
57778;SDS011;43608;49.486;9.640;2023-04-19T00:36:15;7.53;;;5.85;;
57778;SDS011;43608;49.486;9.640;2023-04-19T00:36:46;7.53;;;5.55;;
57778;SDS011;43608;49.486;9.640;2023-04-19T00:37:16;6.60;;;5.10;;
57778;SDS011;43608;49.486;9.640;2023-04-19T00:37:46;7.10;;;5.63;;
57778;SDS011;43608;49.486;9.640;2023-04-19T00:38:17;7.93;;;5.75;;
57778;SDS011;43608;49.486;9.640;2023-04-19T00:38:47;7.20;;;5.32;;
57778;SDS011;43608;49.486;9.640;2023-04-19T00:39:18;8.57;;;6.15;;
57778;SDS011;43608;49.486;9.640;2023-04-19T00:39:48;6.80;;;5.47;;
57778;SDS011;43608;49.486;9.640;2023-04-19T00:40:19;6.63;;;5.40;;
57778;SDS011;43608;49.486;9.640;2023-04-19T00:40:49;6.45;;;5.30;;
57778;SDS011;43608;49.486;9.640;2023-04-19T00:41:20;7.55;;;6.07;;
57778;SDS011;43608;49.486;9.640;2023-04-19T00:41:50;7.18;;;5.40;;
57778;SDS011;43608;49.486;9.640;2023-04-19T00:42:21;6.85;;;5.60;;
57778;SDS011;43608;49.486;9.640;2023-04-19T00:42:52;7.22;;;5.60;;
57778;SDS011;43608;49.486;9.640;2023-04-19T00:43:22;6.95;;;5.70;;
57778;SDS011;43608;49.486;9.640;2023-04-19T00:43:53;7.50;;;5.72;;
57778;SDS011;43608;49.486;9.640;2023-04-19T00:44:23;7.88;;;5.15;;
57778;SDS011;43608;49.486;9.640;2023-04-19T00:44:53;7.53;;;5.80;;
57778;SDS011;43608;49.486;9.640;2023-04-19T00:45:24;6.40;;;5.50;;
57778;SDS011;43608;49.486;9.640;2023-04-19T00:45:54;6.70;;;5.13;;
57778;SDS011;43608;49.486;9.640;2023-04-19T00:46:25;7.22;;;5.72;;
57778;SDS011;43608;49.486;9.640;2023-04-19T00:46:56;7.30;;;5.50;;
57778;SDS011;43608;49.486;9.640;2023-04-19T00:47:27;6.40;;;5.22;;
57778;SDS011;43608;49.486;9.640;2023-04-19T00:47:57;8.18;;;5.53;;
57778;SDS011;43608;49.486;9.640;2023-04-19T00:48:28;6.43;;;5.05;;
57778;SDS011;43608;49.486;9.640;2023-04-19T00:48:59;7.07;;;5.18;;
57778;SDS011;43608;49.486;9.640;2023-04-19T00:49:30;7.57;;;5.35;;
57778;SDS011;43608;49.486;9.640;2023-04-19T00:50:01;6.90;;;5.22;;
57778;SDS011;43608;49.486;9.640;2023-04-19T00:50:33;7.05;;;5.63;;
57778;SDS011;43608;49.486;9.640;2023-04-19T00:51:05;7.28;;;5.55;;
57778;SDS011;43608;49.486;9.640;2023-04-19T00:51:35;7.20;;;5.60;;
57778;SDS011;43608;49.486;9.640;2023-04-19T00:52:06;6.70;;;5.55;;
57778;SDS011;43608;49.486;9.640;2023-04-19T00:52:37;6.72;;;5.35;;
57778;SDS011;43608;49.486;9.640;2023-04-19T00:53:08;7.18;;;5.60;;
57778;SDS011;43608;49.486;9.640;2023-04-19T00:53:39;6.97;;;5.57;;
57778;SDS011;43608;49.486;9.640;2023-04-19T00:54:10;7.75;;;5.95;;
57778;SDS011;43608;49.486;9.640;2023-04-19T00:54:41;7.93;;;6.07;;
57778;SDS011;43608;49.486;9.640;2023-04-19T00:55:12;7.57;;;5.88;;
57778;SDS011;43608;49.486;9.640;2023-04-19T00:55:43;7.47;;;5.82;;
57778;SDS011;43608;49.486;9.640;2023-04-19T00:56:14;8.07;;;5.90;;
57778;SDS011;43608;49.486;9.640;2023-04-19T00:56:45;7.15;;;5.85;;
57778;SDS011;43608;49.486;9.640;2023-04-19T00:57:17;7.68;;;6.07;;
57778;SDS011;43608;49.486;9.640;2023-04-19T00:57:47;6.47;;;5.18;;
57778;SDS011;43608;49.486;9.640;2023-04-19T00:58:18;7.70;;;5.88;;
57778;SDS011;43608;49.486;9.640;2023-04-19T00:58:48;7.60;;;5.97;;
57778;SDS011;43608;49.486;9.640;2023-04-19T00:59:19;7.07;;;5.63;;
57778;SDS011;43608;49.486;9.640;2023-04-19T00:59:50;7.65;;;5.68;;
57778;SDS011;43608;49.486;9.640;2023-04-19T01:00:20;7.60;;;5.40;;
57778;SDS011;43608;49.486;9.640;2023-04-19T01:00:51;7.43;;;5.53;;
57778;SDS011;43608;49.486;9.640;2023-04-19T01:01:22;6.57;;;5.20;;
57778;SDS011;43608;49.486;9.640;2023-04-19T01:01:52;6.43;;;5.10;;
57778;SDS011;43608;49.486;9.640;2023-04-19T01:02:23;6.55;;;5.45;;
57778;SDS011;43608;49.486;9.640;2023-04-19T01:02:53;6.85;;;4.95;;
57778;SDS011;43608;49.486;9.640;2023-04-19T01:03:24;7.43;;;5.28;;
57778;SDS011;43608;49.486;9.640;2023-04-19T01:03:58;7.00;;;5.22;;
57778;SDS011;43608;49.486;9.640;2023-04-19T01:04:30;6.43;;;5.13;;
57778;SDS011;43608;49.486;9.640;2023-04-19T01:05:01;7.53;;;5.65;;
57778;SDS011;43608;49.486;9.640;2023-04-19T01:05:32;7.70;;;5.90;;
57778;SDS011;43608;49.486;9.640;2023-04-19T01:06:02;7.60;;;5.57;;
57778;SDS011;43608;49.486;9.640;2023-04-19T01:06:33;7.15;;;5.45;;
57778;SDS011;43608;49.486;9.640;2023-04-19T01:07:04;6.70;;;5.40;;
57778;SDS011;43608;49.486;9.640;2023-04-19T01:07:35;7.68;;;5.90;;
57778;SDS011;43608;49.486;9.640;2023-04-19T01:08:06;6.35;;;5.25;;
57778;SDS011;43608;49.486;9.640;2023-04-19T01:08:37;7.25;;;5.50;;
57778;SDS011;43608;49.486;9.640;2023-04-19T01:09:08;6.90;;;5.55;;
57778;SDS011;43608;49.486;9.640;2023-04-19T01:09:39;7.93;;;5.55;;
57778;SDS011;43608;49.486;9.640;2023-04-19T01:10:11;7.53;;;5.50;;
57778;SDS011;43608;49.486;9.640;2023-04-19T01:10:42;6.68;;;5.40;;
57778;SDS011;43608;49.486;9.640;2023-04-19T01:11:12;6.40;;;5.18;;
57778;SDS011;43608;49.486;9.640;2023-04-19T01:11:42;6.03;;;5.07;;
57778;SDS011;43608;49.486;9.640;2023-04-19T01:12:13;7.03;;;5.60;;
57778;SDS011;43608;49.486;9.640;2023-04-19T01:12:43;8.25;;;5.68;;
57778;SDS011;43608;49.486;9.640;2023-04-19T01:13:14;7.60;;;5.95;;
57778;SDS011;43608;49.486;9.640;2023-04-19T01:13:44;7.90;;;6.25;;
57778;SDS011;43608;49.486;9.640;2023-04-19T01:14:14;8.38;;;6.10;;
57778;SDS011;43608;49.486;9.640;2023-04-19T01:14:45;8.18;;;6.30;;
57778;SDS011;43608;49.486;9.640;2023-04-19T01:15:16;7.55;;;6.32;;
57778;SDS011;43608;49.486;9.640;2023-04-19T01:15:46;7.55;;;5.82;;
57778;SDS011;43608;49.486;9.640;2023-04-19T01:16:17;7.60;;;6.05;;
57778;SDS011;43608;49.486;9.640;2023-04-19T01:16:48;7.40;;;5.90;;
57778;SDS011;43608;49.486;9.640;2023-04-19T01:17:19;8.02;;;6.40;;
57778;SDS011;43608;49.486;9.640;2023-04-19T01:17:50;8.02;;;6.13;;
57778;SDS011;43608;49.486;9.640;2023-04-19T01:18:21;8.13;;;6.00;;
57778;SDS011;43608;49.486;9.640;2023-04-19T01:18:53;8.25;;;5.80;;
57778;SDS011;43608;49.486;9.640;2023-04-19T01:19:23;7.65;;;6.00;;
57778;SDS011;43608;49.486;9.640;2023-04-19T01:20:01;8.30;;;5.70;;
57778;SDS011;43608;49.486;9.640;2023-04-19T01:20:32;7.53;;;5.97;;
57778;SDS011;43608;49.486;9.640;2023-04-19T01:21:03;8.32;;;6.28;;
57778;SDS011;43608;49.486;9.640;2023-04-19T01:21:35;9.13;;;6.25;;
57778;SDS011;43608;49.486;9.640;2023-04-19T01:22:08;7.60;;;6.30;;
57778;SDS011;43608;49.486;9.640;2023-04-19T01:22:38;7.35;;;5.90;;
57778;SDS011;43608;49.486;9.640;2023-04-19T01:23:09;7.82;;;5.82;;
57778;SDS011;43608;49.486;9.640;2023-04-19T01:23:42;8.10;;;5.95;;
57778;SDS011;43608;49.486;9.640;2023-04-19T01:24:13;6.93;;;5.82;;
57778;SDS011;43608;49.486;9.640;2023-04-19T01:24:43;7.90;;;6.03;;
57778;SDS011;43608;49.486;9.640;2023-04-19T01:25:14;6.18;;;5.30;;
57778;SDS011;43608;49.486;9.640;2023-04-19T01:25:44;6.40;;;5.38;;
57778;SDS011;43608;49.486;9.640;2023-04-19T01:26:15;7.50;;;5.45;;
57778;SDS011;43608;49.486;9.640;2023-04-19T01:26:46;7.55;;;5.82;;
57778;SDS011;43608;49.486;9.640;2023-04-19T01:27:17;7.15;;;5.93;;
57778;SDS011;43608;49.486;9.640;2023-04-19T01:27:48;7.10;;;5.45;;
57778;SDS011;43608;49.486;9.640;2023-04-19T01:28:19;6.88;;;5.10;;
57778;SDS011;43608;49.486;9.640;2023-04-19T01:28:49;6.82;;;5.60;;
57778;SDS011;43608;49.486;9.640;2023-04-19T01:29:20;6.63;;;5.15;;
57778;SDS011;43608;49.486;9.640;2023-04-19T01:29:51;7.10;;;5.50;;
57778;SDS011;43608;49.486;9.640;2023-04-19T01:30:21;6.72;;;5.65;;
57778;SDS011;43608;49.486;9.640;2023-04-19T01:30:51;7.45;;;5.88;;
57778;SDS011;43608;49.486;9.640;2023-04-19T01:31:23;6.60;;;5.28;;
57778;SDS011;43608;49.486;9.640;2023-04-19T01:31:53;6.80;;;5.55;;
57778;SDS011;43608;49.486;9.640;2023-04-19T01:32:23;6.43;;;5.22;;
57778;SDS011;43608;49.486;9.640;2023-04-19T01:32:55;7.10;;;5.80;;
57778;SDS011;43608;49.486;9.640;2023-04-19T01:33:25;7.78;;;5.70;;
57778;SDS011;43608;49.486;9.640;2023-04-19T01:33:56;7.75;;;5.25;;
57778;SDS011;43608;49.486;9.640;2023-04-19T01:34:26;6.85;;;5.20;;
57778;SDS011;43608;49.486;9.640;2023-04-19T01:34:56;7.55;;;5.47;;
57778;SDS011;43608;49.486;9.640;2023-04-19T01:35:27;6.80;;;5.25;;
57778;SDS011;43608;49.486;9.640;2023-04-19T01:35:57;7.70;;;5.43;;
57778;SDS011;43608;49.486;9.640;2023-04-19T01:36:28;7.95;;;5.43;;
57778;SDS011;43608;49.486;9.640;2023-04-19T01:36:58;6.05;;;4.78;;
57778;SDS011;43608;49.486;9.640;2023-04-19T01:37:28;5.97;;;5.00;;
57778;SDS011;43608;49.486;9.640;2023-04-19T01:37:59;5.95;;;5.07;;
57778;SDS011;43608;49.486;9.640;2023-04-19T01:38:30;8.00;;;5.50;;
57778;SDS011;43608;49.486;9.640;2023-04-19T01:39:00;7.18;;;5.30;;
57778;SDS011;43608;49.486;9.640;2023-04-19T01:39:30;7.57;;;5.43;;
57778;SDS011;43608;49.486;9.640;2023-04-19T01:40:02;7.05;;;5.22;;
57778;SDS011;43608;49.486;9.640;2023-04-19T01:40:34;6.60;;;5.45;;
57778;SDS011;43608;49.486;9.640;2023-04-19T01:41:04;7.00;;;5.32;;
57778;SDS011;43608;49.486;9.640;2023-04-19T01:41:36;6.30;;;5.10;;
57778;SDS011;43608;49.486;9.640;2023-04-19T01:42:07;6.57;;;5.10;;
57778;SDS011;43608;49.486;9.640;2023-04-19T01:42:37;6.90;;;5.32;;
57778;SDS011;43608;49.486;9.640;2023-04-19T01:43:11;5.78;;;4.97;;
57778;SDS011;43608;49.486;9.640;2023-04-19T01:43:42;7.22;;;4.90;;
57778;SDS011;43608;49.486;9.640;2023-04-19T01:44:12;6.10;;;4.80;;
57778;SDS011;43608;49.486;9.640;2023-04-19T01:44:42;5.28;;;4.45;;
57778;SDS011;43608;49.486;9.640;2023-04-19T01:45:13;5.50;;;4.40;;
57778;SDS011;43608;49.486;9.640;2023-04-19T01:45:43;6.25;;;4.45;;
57778;SDS011;43608;49.486;9.640;2023-04-19T01:46:14;5.35;;;4.30;;
57778;SDS011;43608;49.486;9.640;2023-04-19T01:46:44;5.70;;;4.50;;
57778;SDS011;43608;49.486;9.640;2023-04-19T01:47:15;5.47;;;4.53;;
57778;SDS011;43608;49.486;9.640;2023-04-19T01:47:45;5.85;;;4.40;;
57778;SDS011;43608;49.486;9.640;2023-04-19T01:48:16;5.90;;;4.65;;
57778;SDS011;43608;49.486;9.640;2023-04-19T01:48:46;5.50;;;4.43;;
57778;SDS011;43608;49.486;9.640;2023-04-19T01:49:16;6.18;;;4.50;;
57778;SDS011;43608;49.486;9.640;2023-04-19T01:49:47;6.00;;;4.38;;
57778;SDS011;43608;49.486;9.640;2023-04-19T01:50:17;6.03;;;4.57;;
57778;SDS011;43608;49.486;9.640;2023-04-19T01:50:47;5.72;;;4.43;;
57778;SDS011;43608;49.486;9.640;2023-04-19T01:51:18;5.28;;;4.35;;
57778;SDS011;43608;49.486;9.640;2023-04-19T01:51:50;5.65;;;4.30;;
57778;SDS011;43608;49.486;9.640;2023-04-19T01:52:21;5.88;;;4.50;;
57778;SDS011;43608;49.486;9.640;2023-04-19T01:52:51;5.10;;;4.22;;
57778;SDS011;43608;49.486;9.640;2023-04-19T01:53:21;5.22;;;3.97;;
57778;SDS011;43608;49.486;9.640;2023-04-19T01:53:52;4.50;;;3.70;;
57778;SDS011;43608;49.486;9.640;2023-04-19T01:54:23;4.82;;;3.90;;
57778;SDS011;43608;49.486;9.640;2023-04-19T01:54:54;5.30;;;4.10;;
57778;SDS011;43608;49.486;9.640;2023-04-19T01:55:24;5.43;;;3.90;;
57778;SDS011;43608;49.486;9.640;2023-04-19T01:55:55;5.15;;;3.90;;
57778;SDS011;43608;49.486;9.640;2023-04-19T01:56:25;4.85;;;3.65;;
57778;SDS011;43608;49.486;9.640;2023-04-19T01:56:55;4.78;;;3.63;;
57778;SDS011;43608;49.486;9.640;2023-04-19T01:57:26;4.80;;;3.55;;
57778;SDS011;43608;49.486;9.640;2023-04-19T01:57:56;4.25;;;3.40;;
57778;SDS011;43608;49.486;9.640;2023-04-19T01:58:27;4.57;;;3.65;;
57778;SDS011;43608;49.486;9.640;2023-04-19T01:58:57;4.72;;;3.30;;
57778;SDS011;43608;49.486;9.640;2023-04-19T01:59:27;4.05;;;3.28;;
57778;SDS011;43608;49.486;9.640;2023-04-19T01:59:58;4.30;;;3.20;;
57778;SDS011;43608;49.486;9.640;2023-04-19T02:00:28;4.35;;;3.38;;
57778;SDS011;43608;49.486;9.640;2023-04-19T02:00:58;4.50;;;3.33;;
57778;SDS011;43608;49.486;9.640;2023-04-19T02:01:29;3.78;;;3.15;;
57778;SDS011;43608;49.486;9.640;2023-04-19T02:01:59;4.80;;;3.60;;
57778;SDS011;43608;49.486;9.640;2023-04-19T02:02:30;4.25;;;3.35;;
57778;SDS011;43608;49.486;9.640;2023-04-19T02:03:00;3.90;;;3.10;;
57778;SDS011;43608;49.486;9.640;2023-04-19T02:03:30;4.28;;;3.30;;
57778;SDS011;43608;49.486;9.640;2023-04-19T02:04:01;4.20;;;3.38;;
57778;SDS011;43608;49.486;9.640;2023-04-19T02:04:32;4.50;;;3.50;;
57778;SDS011;43608;49.486;9.640;2023-04-19T02:05:06;3.70;;;3.17;;
57778;SDS011;43608;49.486;9.640;2023-04-19T02:05:39;4.57;;;3.40;;
57778;SDS011;43608;49.486;9.640;2023-04-19T02:06:13;4.57;;;3.40;;
57778;SDS011;43608;49.486;9.640;2023-04-19T02:06:43;4.20;;;3.22;;
57778;SDS011;43608;49.486;9.640;2023-04-19T02:07:13;4.47;;;3.40;;
57778;SDS011;43608;49.486;9.640;2023-04-19T02:07:44;3.75;;;3.17;;
57778;SDS011;43608;49.486;9.640;2023-04-19T02:08:14;3.97;;;2.90;;
57778;SDS011;43608;49.486;9.640;2023-04-19T02:08:44;4.43;;;3.15;;
57778;SDS011;43608;49.486;9.640;2023-04-19T02:09:15;4.47;;;3.35;;
57778;SDS011;43608;49.486;9.640;2023-04-19T02:09:45;4.30;;;3.50;;
57778;SDS011;43608;49.486;9.640;2023-04-19T02:10:16;4.05;;;3.30;;
57778;SDS011;43608;49.486;9.640;2023-04-19T02:10:46;3.83;;;3.00;;
57778;SDS011;43608;49.486;9.640;2023-04-19T02:11:16;4.07;;;3.22;;
57778;SDS011;43608;49.486;9.640;2023-04-19T02:11:47;4.22;;;3.30;;
57778;SDS011;43608;49.486;9.640;2023-04-19T02:12:17;4.03;;;3.38;;
57778;SDS011;43608;49.486;9.640;2023-04-19T02:12:47;4.22;;;3.08;;
57778;SDS011;43608;49.486;9.640;2023-04-19T02:13:18;4.13;;;3.30;;
57778;SDS011;43608;49.486;9.640;2023-04-19T02:13:48;3.53;;;2.85;;
57778;SDS011;43608;49.486;9.640;2023-04-19T02:14:19;4.25;;;3.30;;
57778;SDS011;43608;49.486;9.640;2023-04-19T02:14:49;4.03;;;3.03;;
57778;SDS011;43608;49.486;9.640;2023-04-19T02:15:19;4.72;;;3.40;;
57778;SDS011;43608;49.486;9.640;2023-04-19T02:15:50;4.40;;;3.40;;
57778;SDS011;43608;49.486;9.640;2023-04-19T02:16:20;4.38;;;3.50;;
57778;SDS011;43608;49.486;9.640;2023-04-19T02:16:50;4.05;;;3.22;;
57778;SDS011;43608;49.486;9.640;2023-04-19T02:17:21;4.10;;;3.17;;
57778;SDS011;43608;49.486;9.640;2023-04-19T02:17:54;4.68;;;3.25;;
57778;SDS011;43608;49.486;9.640;2023-04-19T02:18:25;3.95;;;3.15;;
57778;SDS011;43608;49.486;9.640;2023-04-19T02:18:55;3.95;;;3.30;;
57778;SDS011;43608;49.486;9.640;2023-04-19T02:19:26;4.00;;;3.00;;
57778;SDS011;43608;49.486;9.640;2023-04-19T02:19:56;4.10;;;3.17;;
57778;SDS011;43608;49.486;9.640;2023-04-19T02:20:26;4.20;;;3.30;;
57778;SDS011;43608;49.486;9.640;2023-04-19T02:21:00;4.40;;;3.60;;
57778;SDS011;43608;49.486;9.640;2023-04-19T02:21:30;4.25;;;3.47;;
57778;SDS011;43608;49.486;9.640;2023-04-19T02:22:01;4.00;;;3.30;;
57778;SDS011;43608;49.486;9.640;2023-04-19T02:22:31;3.88;;;3.08;;
57778;SDS011;43608;49.486;9.640;2023-04-19T02:23:01;5.00;;;3.50;;
57778;SDS011;43608;49.486;9.640;2023-04-19T02:23:32;4.38;;;3.40;;
57778;SDS011;43608;49.486;9.640;2023-04-19T02:24:02;3.88;;;3.10;;
57778;SDS011;43608;49.486;9.640;2023-04-19T02:24:33;4.15;;;3.13;;
57778;SDS011;43608;49.486;9.640;2023-04-19T02:25:03;4.55;;;3.47;;
57778;SDS011;43608;49.486;9.640;2023-04-19T02:25:34;4.55;;;3.30;;
57778;SDS011;43608;49.486;9.640;2023-04-19T02:26:04;4.15;;;3.22;;
57778;SDS011;43608;49.486;9.640;2023-04-19T02:26:34;4.22;;;3.40;;
57778;SDS011;43608;49.486;9.640;2023-04-19T02:27:05;3.92;;;3.13;;
57778;SDS011;43608;49.486;9.640;2023-04-19T02:27:35;4.28;;;3.35;;
57778;SDS011;43608;49.486;9.640;2023-04-19T02:28:06;4.13;;;3.20;;
57778;SDS011;43608;49.486;9.640;2023-04-19T02:28:36;3.75;;;3.00;;
57778;SDS011;43608;49.486;9.640;2023-04-19T02:29:08;3.92;;;3.05;;
57778;SDS011;43608;49.486;9.640;2023-04-19T02:29:38;4.45;;;3.40;;
57778;SDS011;43608;49.486;9.640;2023-04-19T02:30:09;4.35;;;3.35;;
57778;SDS011;43608;49.486;9.640;2023-04-19T02:30:40;4.50;;;3.20;;
57778;SDS011;43608;49.486;9.640;2023-04-19T02:31:10;4.18;;;3.30;;
57778;SDS011;43608;49.486;9.640;2023-04-19T02:31:40;4.20;;;3.30;;
57778;SDS011;43608;49.486;9.640;2023-04-19T02:32:11;4.00;;;3.13;;
57778;SDS011;43608;49.486;9.640;2023-04-19T02:32:42;4.63;;;3.35;;
57778;SDS011;43608;49.486;9.640;2023-04-19T02:33:13;3.95;;;3.10;;
57778;SDS011;43608;49.486;9.640;2023-04-19T02:33:44;4.10;;;3.38;;
57778;SDS011;43608;49.486;9.640;2023-04-19T02:34:15;4.30;;;3.38;;
57778;SDS011;43608;49.486;9.640;2023-04-19T02:34:46;4.57;;;3.47;;
57778;SDS011;43608;49.486;9.640;2023-04-19T02:35:16;4.30;;;3.15;;
57778;SDS011;43608;49.486;9.640;2023-04-19T02:35:46;4.50;;;3.35;;
57778;SDS011;43608;49.486;9.640;2023-04-19T02:36:17;4.07;;;3.28;;
57778;SDS011;43608;49.486;9.640;2023-04-19T02:36:47;4.85;;;3.75;;
57778;SDS011;43608;49.486;9.640;2023-04-19T02:37:17;4.40;;;3.30;;
57778;SDS011;43608;49.486;9.640;2023-04-19T02:37:48;4.47;;;3.40;;
57778;SDS011;43608;49.486;9.640;2023-04-19T02:38:18;4.30;;;3.50;;
57778;SDS011;43608;49.486;9.640;2023-04-19T02:38:48;4.30;;;3.47;;
57778;SDS011;43608;49.486;9.640;2023-04-19T02:39:19;4.38;;;3.40;;
57778;SDS011;43608;49.486;9.640;2023-04-19T02:39:49;4.15;;;3.22;;
57778;SDS011;43608;49.486;9.640;2023-04-19T02:40:20;4.25;;;3.20;;
57778;SDS011;43608;49.486;9.640;2023-04-19T02:40:51;3.90;;;3.30;;
57778;SDS011;43608;49.486;9.640;2023-04-19T02:41:22;4.70;;;3.45;;
57778;SDS011;43608;49.486;9.640;2023-04-19T02:41:52;4.22;;;3.30;;
57778;SDS011;43608;49.486;9.640;2023-04-19T02:42:22;4.22;;;3.28;;
57778;SDS011;43608;49.486;9.640;2023-04-19T02:42:53;4.10;;;3.38;;
57778;SDS011;43608;49.486;9.640;2023-04-19T02:43:23;4.00;;;3.22;;
57778;SDS011;43608;49.486;9.640;2023-04-19T02:43:53;4.45;;;3.63;;
57778;SDS011;43608;49.486;9.640;2023-04-19T02:44:25;4.97;;;3.40;;
57778;SDS011;43608;49.486;9.640;2023-04-19T02:44:56;4.22;;;3.28;;
57778;SDS011;43608;49.486;9.640;2023-04-19T02:45:27;4.65;;;3.45;;
57778;SDS011;43608;49.486;9.640;2023-04-19T02:45:57;4.45;;;3.40;;
57778;SDS011;43608;49.486;9.640;2023-04-19T02:46:27;4.13;;;3.30;;
57778;SDS011;43608;49.486;9.640;2023-04-19T02:46:58;4.38;;;3.40;;
57778;SDS011;43608;49.486;9.640;2023-04-19T02:47:28;4.30;;;3.50;;
57778;SDS011;43608;49.486;9.640;2023-04-19T02:47:58;4.55;;;3.55;;
57778;SDS011;43608;49.486;9.640;2023-04-19T02:48:29;4.10;;;3.40;;
57778;SDS011;43608;49.486;9.640;2023-04-19T02:48:59;4.10;;;3.30;;
57778;SDS011;43608;49.486;9.640;2023-04-19T02:49:30;4.32;;;3.17;;
57778;SDS011;43608;49.486;9.640;2023-04-19T02:50:05;3.88;;;3.10;;
57778;SDS011;43608;49.486;9.640;2023-04-19T02:50:36;4.35;;;3.40;;
57778;SDS011;43608;49.486;9.640;2023-04-19T02:51:07;4.47;;;3.50;;
57778;SDS011;43608;49.486;9.640;2023-04-19T02:51:44;4.13;;;3.10;;
57778;SDS011;43608;49.486;9.640;2023-04-19T02:52:15;3.97;;;3.28;;
57778;SDS011;43608;49.486;9.640;2023-04-19T02:52:45;4.57;;;3.40;;
57778;SDS011;43608;49.486;9.640;2023-04-19T02:53:16;4.15;;;3.25;;
57778;SDS011;43608;49.486;9.640;2023-04-19T02:53:46;4.05;;;3.28;;
57778;SDS011;43608;49.486;9.640;2023-04-19T02:54:16;4.30;;;3.20;;
57778;SDS011;43608;49.486;9.640;2023-04-19T02:54:47;4.95;;;3.60;;
57778;SDS011;43608;49.486;9.640;2023-04-19T02:55:17;3.88;;;3.15;;
57778;SDS011;43608;49.486;9.640;2023-04-19T02:55:48;3.95;;;3.30;;
57778;SDS011;43608;49.486;9.640;2023-04-19T02:56:18;4.53;;;3.50;;
57778;SDS011;43608;49.486;9.640;2023-04-19T02:56:49;4.30;;;3.50;;
57778;SDS011;43608;49.486;9.640;2023-04-19T02:57:19;4.35;;;3.58;;
57778;SDS011;43608;49.486;9.640;2023-04-19T02:57:49;4.95;;;3.40;;
57778;SDS011;43608;49.486;9.640;2023-04-19T02:58:20;4.30;;;3.30;;
57778;SDS011;43608;49.486;9.640;2023-04-19T02:58:51;4.75;;;3.58;;
57778;SDS011;43608;49.486;9.640;2023-04-19T02:59:23;4.93;;;3.60;;
57778;SDS011;43608;49.486;9.640;2023-04-19T02:59:53;4.45;;;3.40;;
57778;SDS011;43608;49.486;9.640;2023-04-19T03:00:24;4.65;;;3.40;;
57778;SDS011;43608;49.486;9.640;2023-04-19T03:00:54;4.18;;;3.45;;
57778;SDS011;43608;49.486;9.640;2023-04-19T03:01:25;4.40;;;3.60;;
57778;SDS011;43608;49.486;9.640;2023-04-19T03:01:55;5.47;;;3.53;;
57778;SDS011;43608;49.486;9.640;2023-04-19T03:02:26;4.40;;;3.30;;
57778;SDS011;43608;49.486;9.640;2023-04-19T03:02:56;4.05;;;3.40;;
57778;SDS011;43608;49.486;9.640;2023-04-19T03:03:26;4.22;;;3.33;;
57778;SDS011;43608;49.486;9.640;2023-04-19T03:03:57;4.60;;;3.50;;
57778;SDS011;43608;49.486;9.640;2023-04-19T03:04:27;4.30;;;3.50;;
57778;SDS011;43608;49.486;9.640;2023-04-19T03:04:58;4.72;;;3.45;;